CSCL Long Beach — VRCZ7 — position and weather

sailwx.info

Track history (hours):
 
Tides and Currents Weather Stations Pressure Air Temp Water Temp Dewpoint Dewpoint Depression Visibility Wind Speed Wind Dir Waves Ship Positions

CSCL Long Beach

Last reported at 2016-Dec-26 05:04 UTC. Time now 2017-Jan-17 23:40 UTC.
Position N 22°20' E 114°08'.
Warning: this ship's position is 22 days out of date.

Length 336.7 m; beam 45.6 m; draft 15 m.

Type: Ship (hazmat cat A). MMSI: 477883900.

Date/timePositionNaut miles runAvg speedWind from/ knotsBaromVisibWave heightAir tempDewpointWater temp
2016-Dec-26 05:04N 22°20' E 114°08'0 0.0
2016-Dec-26 04:32N 22°20' E 114°08'0 0.0
2016-Dec-26 03:32N 22°20' E 114°08'0 0.0
2016-Dec-26 02:29N 22°20' E 114°08'0 0.0
2016-Dec-26 01:29N 22°20' E 114°08'0 0.0
2016-Dec-26 00:31N 22°20' E 114°08'0 0.0
2016-Dec-25 23:33N 22°20' E 114°08'0 0.0
2016-Dec-25 22:32N 22°20' E 114°08'0 0.0
2016-Dec-25 21:33N 22°20' E 114°08'0 0.0
2016-Dec-25 20:33N 22°20' E 114°08'0 0.0
2016-Dec-25 19:33N 22°20' E 114°08'0 0.0
2016-Dec-25 18:32N 22°20' E 114°08'0 0.0
2016-Dec-25 17:33N 22°20' E 114°08'0 0.0
2016-Dec-25 16:33N 22°20' E 114°08'0 0.0
2016-Dec-25 15:33N 22°20' E 114°08'14 7.2
2016-Dec-25 13:33N 22°25' E 113°53'3 1.5
2016-Dec-25 11:25N 22°28' E 113°53'0 0.0
2016-Dec-25 10:19N 22°28' E 113°53'0 0.0
2016-Dec-25 07:25N 22°28' E 113°53'0 0.0
2016-Dec-25 06:32N 22°28' E 113°53'14 1.0
2016-Dec-24 17:22N 22°20' E 114°05'23614.1
2016-Dec-24 00:33N 23°47' E 118°04'1919.1
2016-Dec-23 23:33N 24°01' E 118°18'1817.5
2016-Dec-23 22:33N 24°18' E 118°13'1312.9
2016-Dec-23 21:33N 24°26' E 118°02'4 0.6
2016-Dec-23 14:32N 24°27' E 117°58'0 0.0
2016-Dec-23 13:32N 24°27' E 117°58'0 0.0
2016-Dec-23 12:32N 24°27' E 117°58'0 0.0
2016-Dec-23 11:32N 24°27' E 117°58'0 0.0
2016-Dec-23 10:32N 24°27' E 117°58'0 0.0
2016-Dec-23 09:32N 24°27' E 117°58'0 0.0
2016-Dec-23 08:32N 24°27' E 117°58'0 0.0
2016-Dec-23 07:32N 24°27' E 117°58'0 0.0
2016-Dec-23 06:32N 24°27' E 117°58'0 0.0
2016-Dec-23 05:32N 24°27' E 117°58'0 0.0
2016-Dec-23 04:32N 24°27' E 117°58'0 0.0
2016-Dec-23 03:32N 24°27' E 117°58'0 0.0
2016-Dec-23 02:32N 24°27' E 117°58'0 0.0
2016-Dec-23 01:32N 24°27' E 117°58'0 0.0
2016-Dec-23 00:32N 24°27' E 117°58'0 0.0
2016-Dec-22 23:32N 24°27' E 117°58'1 0.8
2016-Dec-22 22:33N 24°27' E 117°59'9 8.7
2016-Dec-22 21:34N 24°23' E 118°07'8 8.0
2016-Dec-22 20:34N 24°17' E 118°14'8 7.5
2016-Dec-22 19:33N 24°12' E 118°19'44112.5
2016-Dec-21 08:06N 30°18' E 122°56'713.4
2016-Dec-21 07:33N 30°21' E 122°48'1111.3
2016-Dec-21 06:33N 30°29' E 122°39'20 0.7
2016-Dec-20 02:22N 30°33' E 122°17'2010.7
2016-Dec-20 00:31N 30°34' E 122°40'2 2.2
2016-Dec-19 23:33N 30°33' E 122°42'7 6.9
2016-Dec-19 22:33N 30°34' E 122°50'  
Track history (hours):
 
Tides and Currents Weather Stations Pressure Air Temp Water Temp Dewpoint Dewpoint Depression Visibility Wind Speed Wind Dir Waves Ship Positions

CSCL Long Beach

Last reported at 2016-Dec-26 05:04 UTC. Time now 2017-Jan-17 23:40 UTC.
Position N 22°20' E 114°08'.
Warning: this ship's position is 22 days out of date.

Length 336.7 m; beam 45.6 m; draft 15 m.

Type: Ship (hazmat cat A). MMSI: 477883900.

Date/timePositionNaut miles runAvg speedWind from/ knotsBaromVisibWave heightAir tempDewpointWater temp
2016-Dec-26 05:04N 22°20' E 114°08'0 0.0
2016-Dec-26 04:32N 22°20' E 114°08'0 0.0
2016-Dec-26 03:32N 22°20' E 114°08'0 0.0
2016-Dec-26 02:29N 22°20' E 114°08'0 0.0
2016-Dec-26 01:29N 22°20' E 114°08'0 0.0
2016-Dec-26 00:31N 22°20' E 114°08'0 0.0
2016-Dec-25 23:33N 22°20' E 114°08'0 0.0
2016-Dec-25 22:32N 22°20' E 114°08'0 0.0
2016-Dec-25 21:33N 22°20' E 114°08'0 0.0
2016-Dec-25 20:33N 22°20' E 114°08'0 0.0
2016-Dec-25 19:33N 22°20' E 114°08'0 0.0
2016-Dec-25 18:32N 22°20' E 114°08'0 0.0
2016-Dec-25 17:33N 22°20' E 114°08'0 0.0
2016-Dec-25 16:33N 22°20' E 114°08'0 0.0
2016-Dec-25 15:33N 22°20' E 114°08'14 7.2
2016-Dec-25 13:33N 22°25' E 113°53'3 1.5
2016-Dec-25 11:25N 22°28' E 113°53'0 0.0
2016-Dec-25 10:19N 22°28' E 113°53'0 0.0
2016-Dec-25 07:25N 22°28' E 113°53'0 0.0
2016-Dec-25 06:32N 22°28' E 113°53'14 1.0
2016-Dec-24 17:22N 22°20' E 114°05'23614.1
2016-Dec-24 00:33N 23°47' E 118°04'1919.1
2016-Dec-23 23:33N 24°01' E 118°18'1817.5
2016-Dec-23 22:33N 24°18' E 118°13'1312.9
2016-Dec-23 21:33N 24°26' E 118°02'4 0.6
2016-Dec-23 14:32N 24°27' E 117°58'0 0.0
2016-Dec-23 13:32N 24°27' E 117°58'0 0.0
2016-Dec-23 12:32N 24°27' E 117°58'0 0.0
2016-Dec-23 11:32N 24°27' E 117°58'0 0.0
2016-Dec-23 10:32N 24°27' E 117°58'0 0.0
2016-Dec-23 09:32N 24°27' E 117°58'0 0.0
2016-Dec-23 08:32N 24°27' E 117°58'0 0.0
2016-Dec-23 07:32N 24°27' E 117°58'0 0.0
2016-Dec-23 06:32N 24°27' E 117°58'0 0.0
2016-Dec-23 05:32N 24°27' E 117°58'0 0.0
2016-Dec-23 04:32N 24°27' E 117°58'0 0.0
2016-Dec-23 03:32N 24°27' E 117°58'0 0.0
2016-Dec-23 02:32N 24°27' E 117°58'0 0.0
2016-Dec-23 01:32N 24°27' E 117°58'0 0.0
2016-Dec-23 00:32N 24°27' E 117°58'0 0.0
2016-Dec-22 23:32N 24°27' E 117°58'1 0.8
2016-Dec-22 22:33N 24°27' E 117°59'9 8.7
2016-Dec-22 21:34N 24°23' E 118°07'8 8.0
2016-Dec-22 20:34N 24°17' E 118°14'8 7.5
2016-Dec-22 19:33N 24°12' E 118°19'44112.5
2016-Dec-21 08:06N 30°18' E 122°56'713.4
2016-Dec-21 07:33N 30°21' E 122°48'1111.3
2016-Dec-21 06:33N 30°29' E 122°39'20 0.7
2016-Dec-20 02:22N 30°33' E 122°17'2010.7
2016-Dec-20 00:31N 30°34' E 122°40'2 2.2
2016-Dec-19 23:33N 30°33' E 122°42'7 6.9
2016-Dec-19 22:33N 30°34' E 122°50'  

Dump ship's entire track history